sensor_id;sensor_type;location;lat;lon;timestamp;temperature;humidity
18240;DHT22;9244;50.828;4.718;2024-03-23T00:51:39;6.50;99.90
18240;DHT22;9244;50.828;4.718;2024-03-23T00:54:04;6.50;99.90
18240;DHT22;9244;50.828;4.718;2024-03-23T00:56:30;6.50;99.90
18240;DHT22;9244;50.828;4.718;2024-03-23T00:58:56;6.40;99.90
18240;DHT22;9244;50.828;4.718;2024-03-23T01:01:21;6.40;99.90
18240;DHT22;9244;50.828;4.718;2024-03-23T01:03:47;6.40;99.90
18240;DHT22;9244;50.828;4.718;2024-03-23T01:06:13;6.20;99.90
18240;DHT22;9244;50.828;4.718;2024-03-23T01:08:41;6.20;99.90
18240;DHT22;9244;50.828;4.718;2024-03-23T01:11:07;6.30;99.90
18240;DHT22;9244;50.828;4.718;2024-03-23T01:13:33;6.40;99.90
18240;DHT22;9244;50.828;4.718;2024-03-23T01:15:59;6.40;99.90
18240;DHT22;9244;50.828;4.718;2024-03-23T01:18:25;6.40;99.90
18240;DHT22;9244;50.828;4.718;2024-03-23T01:20:53;6.40;99.90
18240;DHT22;9244;50.828;4.718;2024-03-23T01:23:19;6.50;99.90
18240;DHT22;9244;50.828;4.718;2024-03-23T01:25:52;6.50;99.90
18240;DHT22;9244;50.828;4.718;2024-03-23T01:28:21;6.50;99.90
18240;DHT22;9244;50.828;4.718;2024-03-23T01:30:47;6.40;99.90
18240;DHT22;9244;50.828;4.718;2024-03-23T01:33:13;6.50;99.90
18240;DHT22;9244;50.828;4.718;2024-03-23T01:35:39;6.50;99.90
18240;DHT22;9244;50.828;4.718;2024-03-23T01:38:05;6.50;99.90
18240;DHT22;9244;50.828;4.718;2024-03-23T01:40:31;6.40;99.90
18240;DHT22;9244;50.828;4.718;2024-03-23T01:43:08;6.40;99.90
18240;DHT22;9244;50.828;4.718;2024-03-23T01:45:34;6.40;99.90
18240;DHT22;9244;50.828;4.718;2024-03-23T01:48:00;6.30;99.90
18240;DHT22;9244;50.828;4.718;2024-03-23T01:50:27;6.30;99.90
18240;DHT22;9244;50.828;4.718;2024-03-23T01:52:53;6.20;99.90
18240;DHT22;9244;50.828;4.718;2024-03-23T01:55:19;6.20;99.90
18240;DHT22;9244;50.828;4.718;2024-03-23T01:57:45;6.20;99.90
18240;DHT22;9244;50.828;4.718;2024-03-23T02:00:11;6.20;99.90
18240;DHT22;9244;50.828;4.718;2024-03-23T02:02:44;6.20;99.90
18240;DHT22;9244;50.828;4.718;2024-03-23T02:05:13;6.20;99.90
18240;DHT22;9244;50.828;4.718;2024-03-23T02:07:40;6.20;99.90
18240;DHT22;9244;50.828;4.718;2024-03-23T02:10:07;6.10;99.90
18240;DHT22;9244;50.828;4.718;2024-03-23T02:12:36;6.00;99.90
18240;DHT22;9244;50.828;4.718;2024-03-23T02:15:02;6.00;99.90
18240;DHT22;9244;50.828;4.718;2024-03-23T02:17:30;5.90;99.90
18240;DHT22;9244;50.828;4.718;2024-03-23T02:19:59;5.80;99.90
18240;DHT22;9244;50.828;4.718;2024-03-23T02:22:37;5.80;99.90
18240;DHT22;9244;50.828;4.718;2024-03-23T02:25:06;5.80;99.90
18240;DHT22;9244;50.828;4.718;2024-03-23T02:27:33;5.70;99.90
18240;DHT22;9244;50.828;4.718;2024-03-23T02:30:00;5.80;99.90
18240;DHT22;9244;50.828;4.718;2024-03-23T02:32:25;5.80;99.90
18240;DHT22;9244;50.828;4.718;2024-03-23T02:34:51;5.80;99.90
18240;DHT22;9244;50.828;4.718;2024-03-23T02:37:17;5.80;99.90
18240;DHT22;9244;50.828;4.718;2024-03-23T02:39:42;5.90;99.90
18240;DHT22;9244;50.828;4.718;2024-03-23T02:42:08;5.90;99.90
18240;DHT22;9244;50.828;4.718;2024-03-23T02:44:34;5.90;99.90
18240;DHT22;9244;50.828;4.718;2024-03-23T02:46:59;6.00;99.90
18240;DHT22;9244;50.828;4.718;2024-03-23T02:49:26;6.00;99.90
18240;DHT22;9244;50.828;4.718;2024-03-23T02:51:52;6.00;99.90
18240;DHT22;9244;50.828;4.718;2024-03-23T02:54:17;6.00;99.90
18240;DHT22;9244;50.828;4.718;2024-03-23T02:56:43;6.00;99.90
18240;DHT22;9244;50.828;4.718;2024-03-23T02:59:11;6.00;99.90
18240;DHT22;9244;50.828;4.718;2024-03-23T03:01:39;6.00;99.90
18240;DHT22;9244;50.828;4.718;2024-03-23T03:04:05;6.00;99.90
18240;DHT22;9244;50.828;4.718;2024-03-23T03:06:31;6.00;99.90
18240;DHT22;9244;50.828;4.718;2024-03-23T03:08:57;6.00;99.90
18240;DHT22;9244;50.828;4.718;2024-03-23T03:11:24;6.10;99.90
18240;DHT22;9244;50.828;4.718;2024-03-23T03:13:50;6.10;99.90
18240;DHT22;9244;50.828;4.718;2024-03-23T03:16:16;6.10;99.90
18240;DHT22;9244;50.828;4.718;2024-03-23T03:18:42;6.10;99.90
18240;DHT22;9244;50.828;4.718;2024-03-23T03:21:07;6.10;99.90
18240;DHT22;9244;50.828;4.718;2024-03-23T03:23:39;6.10;99.90
18240;DHT22;9244;50.828;4.718;2024-03-23T03:26:05;6.10;99.90
18240;DHT22;9244;50.828;4.718;2024-03-23T03:28:36;6.10;99.90
18240;DHT22;9244;50.828;4.718;2024-03-23T03:31:02;6.10;99.90
18240;DHT22;9244;50.828;4.718;2024-03-23T03:33:28;6.10;99.90
18240;DHT22;9244;50.828;4.718;2024-03-23T03:35:54;6.10;99.90
18240;DHT22;9244;50.828;4.718;2024-03-23T03:38:20;6.10;99.90
18240;DHT22;9244;50.828;4.718;2024-03-23T03:40:46;6.10;99.90
18240;DHT22;9244;50.828;4.718;2024-03-23T03:43:11;6.10;99.90
18240;DHT22;9244;50.828;4.718;2024-03-23T03:45:37;6.10;99.90
18240;DHT22;9244;50.828;4.718;2024-03-23T03:48:03;6.00;99.90
18240;DHT22;9244;50.828;4.718;2024-03-23T03:50:29;6.00;99.90
18240;DHT22;9244;50.828;4.718;2024-03-23T03:52:56;6.00;99.90
18240;DHT22;9244;50.828;4.718;2024-03-23T03:55:24;6.00;99.90
18240;DHT22;9244;50.828;4.718;2024-03-23T03:57:51;6.00;99.90
18240;DHT22;9244;50.828;4.718;2024-03-23T04:00:17;5.90;99.90
18240;DHT22;9244;50.828;4.718;2024-03-23T04:02:43;5.90;99.90
18240;DHT22;9244;50.828;4.718;2024-03-23T04:05:09;5.80;99.90
18240;DHT22;9244;50.828;4.718;2024-03-23T04:07:37;5.80;99.90
18240;DHT22;9244;50.828;4.718;2024-03-23T04:10:03;5.70;99.90
18240;DHT22;9244;50.828;4.718;2024-03-23T04:12:32;5.70;99.90
18240;DHT22;9244;50.828;4.718;2024-03-23T04:15:03;5.60;99.90
18240;DHT22;9244;50.828;4.718;2024-03-23T04:17:31;5.60;99.90
18240;DHT22;9244;50.828;4.718;2024-03-23T04:20:02;5.70;99.90
18240;DHT22;9244;50.828;4.718;2024-03-23T04:22:33;5.70;99.90
18240;DHT22;9244;50.828;4.718;2024-03-23T04:24:59;5.60;99.90
18240;DHT22;9244;50.828;4.718;2024-03-23T04:27:24;5.70;99.90
18240;DHT22;9244;50.828;4.718;2024-03-23T04:29:51;5.70;99.90
18240;DHT22;9244;50.828;4.718;2024-03-23T04:32:17;5.70;99.90
18240;DHT22;9244;50.828;4.718;2024-03-23T04:34:43;5.70;99.90
18240;DHT22;9244;50.828;4.718;2024-03-23T04:37:09;5.70;99.90
18240;DHT22;9244;50.828;4.718;2024-03-23T04:39:38;5.60;99.90
18240;DHT22;9244;50.828;4.718;2024-03-23T04:42:05;5.60;99.90
18240;DHT22;9244;50.828;4.718;2024-03-23T04:44:31;5.60;99.90
18240;DHT22;9244;50.828;4.718;2024-03-23T04:47:00;5.70;99.90
18240;DHT22;9244;50.828;4.718;2024-03-23T04:49:26;5.70;99.90
18240;DHT22;9244;50.828;4.718;2024-03-23T04:51:54;5.70;99.90
18240;DHT22;9244;50.828;4.718;2024-03-23T04:54:21;5.70;99.90
18240;DHT22;9244;50.828;4.718;2024-03-23T04:56:47;5.70;99.90
18240;DHT22;9244;50.828;4.718;2024-03-23T04:59:13;5.70;99.90
18240;DHT22;9244;50.828;4.718;2024-03-23T05:01:38;5.80;99.90
18240;DHT22;9244;50.828;4.718;2024-03-23T05:04:09;5.80;99.90
18240;DHT22;9244;50.828;4.718;2024-03-23T05:06:40;5.80;99.90
18240;DHT22;9244;50.828;4.718;2024-03-23T05:09:05;5.80;99.90
18240;DHT22;9244;50.828;4.718;2024-03-23T05:11:33;5.80;99.90
18240;DHT22;9244;50.828;4.718;2024-03-23T05:13:59;5.80;99.90
18240;DHT22;9244;50.828;4.718;2024-03-23T05:16:25;5.90;99.90
18240;DHT22;9244;50.828;4.718;2024-03-23T05:18:54;5.90;99.90
18240;DHT22;9244;50.828;4.718;2024-03-23T05:21:19;5.80;99.90
18240;DHT22;9244;50.828;4.718;2024-03-23T05:23:45;5.70;99.90
18240;DHT22;9244;50.828;4.718;2024-03-23T05:26:11;5.60;99.90
18240;DHT22;9244;50.828;4.718;2024-03-23T05:28:36;5.60;99.90
18240;DHT22;9244;50.828;4.718;2024-03-23T05:31:02;5.50;99.90
18240;DHT22;9244;50.828;4.718;2024-03-23T05:33:28;5.60;99.90
18240;DHT22;9244;50.828;4.718;2024-03-23T05:36:01;5.60;99.90
18240;DHT22;9244;50.828;4.718;2024-03-23T05:38:27;5.50;99.90
18240;DHT22;9244;50.828;4.718;2024-03-23T05:40:57;5.50;99.90
18240;DHT22;9244;50.828;4.718;2024-03-23T05:43:23;5.50;99.90
18240;DHT22;9244;50.828;4.718;2024-03-23T05:45:59;5.50;99.90
18240;DHT22;9244;50.828;4.718;2024-03-23T05:48:25;5.40;99.90
18240;DHT22;9244;50.828;4.718;2024-03-23T05:50:52;5.50;99.90
18240;DHT22;9244;50.828;4.718;2024-03-23T05:53:21;5.50;99.90
18240;DHT22;9244;50.828;4.718;2024-03-23T05:55:49;5.50;99.90
18240;DHT22;9244;50.828;4.718;2024-03-23T05:58:18;5.60;99.90
18240;DHT22;9244;50.828;4.718;2024-03-23T06:00:46;5.60;99.90
18240;DHT22;9244;50.828;4.718;2024-03-23T06:03:12;5.60;99.90
18240;DHT22;9244;50.828;4.718;2024-03-23T06:05:38;5.60;99.90
18240;DHT22;9244;50.828;4.718;2024-03-23T06:08:06;5.60;99.90
18240;DHT22;9244;50.828;4.718;2024-03-23T06:10:35;5.70;99.90
18240;DHT22;9244;50.828;4.718;2024-03-23T06:13:00;5.80;99.90
18240;DHT22;9244;50.828;4.718;2024-03-23T06:15:26;5.90;99.90
18240;DHT22;9244;50.828;4.718;2024-03-23T06:17:52;6.00;99.90
18240;DHT22;9244;50.828;4.718;2024-03-23T06:20:18;6.10;99.90
18240;DHT22;9244;50.828;4.718;2024-03-23T06:22:44;6.10;99.90
18240;DHT22;9244;50.828;4.718;2024-03-23T06:25:09;6.10;99.90
18240;DHT22;9244;50.828;4.718;2024-03-23T06:27:35;6.10;99.90
18240;DHT22;9244;50.828;4.718;2024-03-23T06:30:01;6.10;99.90
18240;DHT22;9244;50.828;4.718;2024-03-23T06:32:27;6.20;99.90
18240;DHT22;9244;50.828;4.718;2024-03-23T06:34:54;6.20;99.90
18240;DHT22;9244;50.828;4.718;2024-03-23T06:37:20;6.20;99.90
18240;DHT22;9244;50.828;4.718;2024-03-23T06:39:46;6.30;99.90
18240;DHT22;9244;50.828;4.718;2024-03-23T06:42:14;6.40;99.90
18240;DHT22;9244;50.828;4.718;2024-03-23T06:44:40;6.40;99.90
18240;DHT22;9244;50.828;4.718;2024-03-23T06:47:06;6.40;99.90
18240;DHT22;9244;50.828;4.718;2024-03-23T06:49:33;6.50;99.90
18240;DHT22;9244;50.828;4.718;2024-03-23T06:51:59;6.50;99.90
18240;DHT22;9244;50.828;4.718;2024-03-23T06:54:25;6.50;99.90
18240;DHT22;9244;50.828;4.718;2024-03-23T06:56:51;6.60;99.90
18240;DHT22;9244;50.828;4.718;2024-03-23T06:59:17;6.70;99.90
18240;DHT22;9244;50.828;4.718;2024-03-23T07:01:43;6.70;99.90
18240;DHT22;9244;50.828;4.718;2024-03-23T07:04:08;6.70;99.90
18240;DHT22;9244;50.828;4.718;2024-03-23T07:06:34;6.70;99.90
18240;DHT22;9244;50.828;4.718;2024-03-23T07:09:00;6.80;99.90
18240;DHT22;9244;50.828;4.718;2024-03-23T07:11:25;6.80;99.90
18240;DHT22;9244;50.828;4.718;2024-03-23T07:13:56;6.90;99.90
18240;DHT22;9244;50.828;4.718;2024-03-23T07:16:22;7.10;99.90
18240;DHT22;9244;50.828;4.718;2024-03-23T07:18:50;7.40;99.90
18240;DHT22;9244;50.828;4.718;2024-03-23T07:21:16;7.70;99.90
18240;DHT22;9244;50.828;4.718;2024-03-23T07:23:45;7.80;99.90
18240;DHT22;9244;50.828;4.718;2024-03-23T07:26:10;7.50;99.90
18240;DHT22;9244;50.828;4.718;2024-03-23T07:28:36;7.30;99.90
18240;DHT22;9244;50.828;4.718;2024-03-23T07:31:07;7.20;99.90
18240;DHT22;9244;50.828;4.718;2024-03-23T07:33:41;7.00;99.90
18240;DHT22;9244;50.828;4.718;2024-03-23T07:36:10;6.60;99.90
18240;DHT22;9244;50.828;4.718;2024-03-23T07:38:35;6.10;99.90
18240;DHT22;9244;50.828;4.718;2024-03-23T07:41:07;5.80;99.90
18240;DHT22;9244;50.828;4.718;2024-03-23T07:43:34;5.70;99.90
18240;DHT22;9244;50.828;4.718;2024-03-23T07:46:00;5.70;99.90
18240;DHT22;9244;50.828;4.718;2024-03-23T07:48:26;5.70;99.90
18240;DHT22;9244;50.828;4.718;2024-03-23T07:51:04;5.70;99.90
18240;DHT22;9244;50.828;4.718;2024-03-23T07:53:32;5.60;99.90
18240;DHT22;9244;50.828;4.718;2024-03-23T07:56:02;5.60;99.90
18240;DHT22;9244;50.828;4.718;2024-03-23T07:58:28;6.20;99.90
18240;DHT22;9244;50.828;4.718;2024-03-23T08:01:10;7.50;99.90
18240;DHT22;9244;50.828;4.718;2024-03-23T08:03:41;8.90;99.90
18240;DHT22;9244;50.828;4.718;2024-03-23T08:06:15;9.50;99.90
18240;DHT22;9244;50.828;4.718;2024-03-23T08:08:44;9.90;99.90
18240;DHT22;9244;50.828;4.718;2024-03-23T08:11:12;10.70;99.90
18240;DHT22;9244;50.828;4.718;2024-03-23T08:13:41;11.00;99.90
18240;DHT22;9244;50.828;4.718;2024-03-23T08:16:07;11.20;99.90
18240;DHT22;9244;50.828;4.718;2024-03-23T08:18:36;12.00;99.90
18240;DHT22;9244;50.828;4.718;2024-03-23T08:21:04;11.30;99.90
18240;DHT22;9244;50.828;4.718;2024-03-23T08:23:33;11.40;99.90
18240;DHT22;9244;50.828;4.718;2024-03-23T08:26:01;11.30;99.90
18240;DHT22;9244;50.828;4.718;2024-03-23T08:28:28;11.00;99.90
18240;DHT22;9244;50.828;4.718;2024-03-23T08:30:54;10.60;99.90
18240;DHT22;9244;50.828;4.718;2024-03-23T08:33:20;10.30;99.90
18240;DHT22;9244;50.828;4.718;2024-03-23T08:35:54;11.10;99.90
18240;DHT22;9244;50.828;4.718;2024-03-23T08:38:23;12.50;99.90
18240;DHT22;9244;50.828;4.718;2024-03-23T08:41:03;11.10;99.90
18240;DHT22;9244;50.828;4.718;2024-03-23T08:43:30;9.70;99.90
18240;DHT22;9244;50.828;4.718;2024-03-23T08:46:17;9.30;99.90
18240;DHT22;9244;50.828;4.718;2024-03-23T08:48:46;9.00;99.90
18240;DHT22;9244;50.828;4.718;2024-03-23T08:51:15;9.50;99.90
18240;DHT22;9244;50.828;4.718;2024-03-23T08:53:42;9.70;99.90
18240;DHT22;9244;50.828;4.718;2024-03-23T08:56:09;10.50;99.90
18240;DHT22;9244;50.828;4.718;2024-03-23T08:58:38;10.90;99.90
18240;DHT22;9244;50.828;4.718;2024-03-23T09:01:08;11.40;99.90
18240;DHT22;9244;50.828;4.718;2024-03-23T09:03:35;11.90;99.90
18240;DHT22;9244;50.828;4.718;2024-03-23T09:06:14;12.30;99.90
18240;DHT22;9244;50.828;4.718;2024-03-23T09:08:40;11.30;99.90
18240;DHT22;9244;50.828;4.718;2024-03-23T09:11:07;10.10;99.90
18240;DHT22;9244;50.828;4.718;2024-03-23T09:13:35;9.60;99.90
18240;DHT22;9244;50.828;4.718;2024-03-23T09:16:01;9.80;99.90
18240;DHT22;9244;50.828;4.718;2024-03-23T09:18:27;10.20;99.90
18240;DHT22;9244;50.828;4.718;2024-03-23T09:20:54;10.00;99.90
18240;DHT22;9244;50.828;4.718;2024-03-23T09:23:21;10.20;99.90
18240;DHT22;9244;50.828;4.718;2024-03-23T09:25:47;10.00;99.90
18240;DHT22;9244;50.828;4.718;2024-03-23T09:28:12;10.20;99.90
18240;DHT22;9244;50.828;4.718;2024-03-23T09:30:38;10.80;99.90
18240;DHT22;9244;50.828;4.718;2024-03-23T09:33:08;11.10;99.90
18240;DHT22;9244;50.828;4.718;2024-03-23T09:35:38;11.50;99.90
18240;DHT22;9244;50.828;4.718;2024-03-23T09:38:06;11.20;99.90
18240;DHT22;9244;50.828;4.718;2024-03-23T09:40:40;11.30;99.90
18240;DHT22;9244;50.828;4.718;2024-03-23T09:43:07;11.20;99.90
18240;DHT22;9244;50.828;4.718;2024-03-23T09:45:38;11.20;99.90
18240;DHT22;9244;50.828;4.718;2024-03-23T09:48:04;11.00;99.90
18240;DHT22;9244;50.828;4.718;2024-03-23T09:50:35;11.80;99.90
18240;DHT22;9244;50.828;4.718;2024-03-23T09:53:01;12.60;99.90
18240;DHT22;9244;50.828;4.718;2024-03-23T09:55:27;12.70;99.90
18240;DHT22;9244;50.828;4.718;2024-03-23T09:57:52;12.60;99.90
18240;DHT22;9244;50.828;4.718;2024-03-23T10:00:20;12.50;99.90
18240;DHT22;9244;50.828;4.718;2024-03-23T10:02:46;12.50;99.90
18240;DHT22;9244;50.828;4.718;2024-03-23T10:05:21;13.50;99.90
18240;DHT22;9244;50.828;4.718;2024-03-23T10:07:50;13.90;99.90
18240;DHT22;9244;50.828;4.718;2024-03-23T10:10:17;13.50;99.90
18240;DHT22;9244;50.828;4.718;2024-03-23T10:12:49;13.20;99.90
18240;DHT22;9244;50.828;4.718;2024-03-23T10:15:23;12.70;99.90
18240;DHT22;9244;50.828;4.718;2024-03-23T10:17:49;12.70;99.90
18240;DHT22;9244;50.828;4.718;2024-03-23T10:20:22;13.40;99.90
18240;DHT22;9244;50.828;4.718;2024-03-23T10:22:49;12.70;99.90
18240;DHT22;9244;50.828;4.718;2024-03-23T10:25:18;11.40;99.90
18240;DHT22;9244;50.828;4.718;2024-03-23T10:27:58;12.40;99.90
18240;DHT22;9244;50.828;4.718;2024-03-23T10:30:27;13.10;99.90
18240;DHT22;9244;50.828;4.718;2024-03-23T10:33:10;13.70;99.90
18240;DHT22;9244;50.828;4.718;2024-03-23T10:35:37;13.60;99.90
18240;DHT22;9244;50.828;4.718;2024-03-23T10:38:05;13.30;99.90
18240;DHT22;9244;50.828;4.718;2024-03-23T10:40:34;13.60;99.90
18240;DHT22;9244;50.828;4.718;2024-03-23T10:43:03;12.90;99.90
18240;DHT22;9244;50.828;4.718;2024-03-23T10:45:29;12.50;99.90
18240;DHT22;9244;50.828;4.718;2024-03-23T10:47:55;11.30;99.90
18240;DHT22;9244;50.828;4.718;2024-03-23T10:50:22;10.50;99.90
18240;DHT22;9244;50.828;4.718;2024-03-23T10:52:48;10.90;99.90
18240;DHT22;9244;50.828;4.718;2024-03-23T10:55:18;12.10;99.90
18240;DHT22;9244;50.828;4.718;2024-03-23T10:57:50;11.40;99.90
18240;DHT22;9244;50.828;4.718;2024-03-23T11:00:19;11.00;99.90
18240;DHT22;9244;50.828;4.718;2024-03-23T11:02:48;10.50;99.90
18240;DHT22;9244;50.828;4.718;2024-03-23T11:07:53;11.60;99.90
18240;DHT22;9244;50.828;4.718;2024-03-23T11:10:29;12.20;99.90
18240;DHT22;9244;50.828;4.718;2024-03-23T11:15:43;12.70;99.90
18240;DHT22;9244;50.828;4.718;2024-03-23T11:18:09;13.30;99.90
18240;DHT22;9244;50.828;4.718;2024-03-23T11:20:37;13.60;99.90
18240;DHT22;9244;50.828;4.718;2024-03-23T11:23:03;14.40;99.90
18240;DHT22;9244;50.828;4.718;2024-03-23T11:25:29;14.40;99.90
18240;DHT22;9244;50.828;4.718;2024-03-23T11:27:58;14.90;99.90
18240;DHT22;9244;50.828;4.718;2024-03-23T11:30:34;14.40;99.90
18240;DHT22;9244;50.828;4.718;2024-03-23T11:33:02;13.40;99.90
18240;DHT22;9244;50.828;4.718;2024-03-23T11:35:37;13.30;99.90
18240;DHT22;9244;50.828;4.718;2024-03-23T11:38:22;13.10;99.90
18240;DHT22;9244;50.828;4.718;2024-03-23T11:40:51;13.10;99.90
18240;DHT22;9244;50.828;4.718;2024-03-23T11:43:18;13.90;99.90
18240;DHT22;9244;50.828;4.718;2024-03-23T11:45:49;12.90;99.90
18240;DHT22;9244;50.828;4.718;2024-03-23T11:48:19;12.80;99.90
18240;DHT22;9244;50.828;4.718;2024-03-23T11:50:47;12.60;99.90
18240;DHT22;9244;50.828;4.718;2024-03-23T11:53:16;12.10;99.90
18240;DHT22;9244;50.828;4.718;2024-03-23T11:58:15;13.50;99.90
18240;DHT22;9244;50.828;4.718;2024-03-23T12:00:41;14.50;99.90
18240;DHT22;9244;50.828;4.718;2024-03-23T12:03:08;14.60;99.90
18240;DHT22;9244;50.828;4.718;2024-03-23T12:05:36;14.20;99.90
18240;DHT22;9244;50.828;4.718;2024-03-23T12:11:04;13.60;99.90
18240;DHT22;9244;50.828;4.718;2024-03-23T12:13:30;13.90;99.90
18240;DHT22;9244;50.828;4.718;2024-03-23T12:18:46;13.30;99.90
18240;DHT22;9244;50.828;4.718;2024-03-23T12:21:15;13.80;99.90
18240;DHT22;9244;50.828;4.718;2024-03-23T12:23:47;13.50;99.90
18240;DHT22;9244;50.828;4.718;2024-03-23T12:26:14;12.80;99.90
18240;DHT22;9244;50.828;4.718;2024-03-23T12:28:41;11.90;99.90
18240;DHT22;9244;50.828;4.718;2024-03-23T12:31:06;11.60;99.90
18240;DHT22;9244;50.828;4.718;2024-03-23T12:33:32;11.30;99.90
18240;DHT22;9244;50.828;4.718;2024-03-23T12:35:58;11.10;99.90
18240;DHT22;9244;50.828;4.718;2024-03-23T12:38:23;10.70;99.90
18240;DHT22;9244;50.828;4.718;2024-03-23T12:40:49;10.70;99.90
18240;DHT22;9244;50.828;4.718;2024-03-23T12:43:16;10.90;99.90
18240;DHT22;9244;50.828;4.718;2024-03-23T12:45:46;10.90;99.90
18240;DHT22;9244;50.828;4.718;2024-03-23T12:48:12;10.60;99.90
18240;DHT22;9244;50.828;4.718;2024-03-23T12:50:38;10.20;99.90
18240;DHT22;9244;50.828;4.718;2024-03-23T12:53:04;9.40;99.90
18240;DHT22;9244;50.828;4.718;2024-03-23T12:55:29;8.40;99.90
18240;DHT22;9244;50.828;4.718;2024-03-23T12:57:55;8.60;99.90
18240;DHT22;9244;50.828;4.718;2024-03-23T13:00:22;9.00;99.90
18240;DHT22;9244;50.828;4.718;2024-03-23T13:02:49;9.60;99.90
18240;DHT22;9244;50.828;4.718;2024-03-23T13:05:15;11.00;99.90
18240;DHT22;9244;50.828;4.718;2024-03-23T13:07:41;11.90;99.90
18240;DHT22;9244;50.828;4.718;2024-03-23T13:10:07;12.50;99.90
18240;DHT22;9244;50.828;4.718;2024-03-23T13:12:33;13.40;99.90
18240;DHT22;9244;50.828;4.718;2024-03-23T13:14:59;13.00;99.90
18240;DHT22;9244;50.828;4.718;2024-03-23T13:17:26;13.20;99.90
18240;DHT22;9244;50.828;4.718;2024-03-23T13:19:53;13.20;99.90
18240;DHT22;9244;50.828;4.718;2024-03-23T13:22:19;13.60;99.90
18240;DHT22;9244;50.828;4.718;2024-03-23T13:24:44;13.90;99.90
18240;DHT22;9244;50.828;4.718;2024-03-23T13:27:10;13.90;99.90
18240;DHT22;9244;50.828;4.718;2024-03-23T13:29:36;14.10;99.90
18240;DHT22;9244;50.828;4.718;2024-03-23T13:32:03;13.80;99.90
18240;DHT22;9244;50.828;4.718;2024-03-23T13:34:31;13.60;99.90
18240;DHT22;9244;50.828;4.718;2024-03-23T13:36:57;13.10;99.90
18240;DHT22;9244;50.828;4.718;2024-03-23T13:39:25;14.10;99.90
18240;DHT22;9244;50.828;4.718;2024-03-23T13:41:53;14.30;99.90
18240;DHT22;9244;50.828;4.718;2024-03-23T13:44:20;14.30;99.90
18240;DHT22;9244;50.828;4.718;2024-03-23T13:46:45;13.50;99.90
18240;DHT22;9244;50.828;4.718;2024-03-23T13:49:38;13.10;99.90
18240;DHT22;9244;50.828;4.718;2024-03-23T13:52:06;12.70;99.90
18240;DHT22;9244;50.828;4.718;2024-03-23T13:54:32;13.20;99.90
18240;DHT22;9244;50.828;4.718;2024-03-23T13:56:58;13.30;99.90
18240;DHT22;9244;50.828;4.718;2024-03-23T13:59:28;13.40;99.90
18240;DHT22;9244;50.828;4.718;2024-03-23T14:01:57;13.70;99.90
18240;DHT22;9244;50.828;4.718;2024-03-23T14:04:23;12.60;99.90
18240;DHT22;9244;50.828;4.718;2024-03-23T14:06:50;12.50;99.90
18240;DHT22;9244;50.828;4.718;2024-03-23T14:09:16;13.10;99.90
18240;DHT22;9244;50.828;4.718;2024-03-23T14:11:47;12.90;99.90
18240;DHT22;9244;50.828;4.718;2024-03-23T14:14:12;13.00;99.90
18240;DHT22;9244;50.828;4.718;2024-03-23T14:16:38;13.00;99.90
18240;DHT22;9244;50.828;4.718;2024-03-23T14:19:04;13.30;99.90
18240;DHT22;9244;50.828;4.718;2024-03-23T14:21:32;13.70;99.90
18240;DHT22;9244;50.828;4.718;2024-03-23T14:23:57;14.40;99.90
18240;DHT22;9244;50.828;4.718;2024-03-23T14:26:23;14.50;99.90
18240;DHT22;9244;50.828;4.718;2024-03-23T14:28:49;14.40;99.90
18240;DHT22;9244;50.828;4.718;2024-03-23T14:31:16;13.50;99.90
18240;DHT22;9244;50.828;4.718;2024-03-23T14:33:41;13.20;99.90
18240;DHT22;9244;50.828;4.718;2024-03-23T14:36:16;13.70;99.90
18240;DHT22;9244;50.828;4.718;2024-03-23T14:38:50;12.90;99.90
18240;DHT22;9244;50.828;4.718;2024-03-23T14:41:15;12.00;99.90
18240;DHT22;9244;50.828;4.718;2024-03-23T14:43:41;12.20;99.90
18240;DHT22;9244;50.828;4.718;2024-03-23T14:46:10;13.20;99.90
18240;DHT22;9244;50.828;4.718;2024-03-23T14:48:36;14.50;99.90
18240;DHT22;9244;50.828;4.718;2024-03-23T14:51:05;14.90;99.90
18240;DHT22;9244;50.828;4.718;2024-03-23T14:53:33;14.80;99.90
18240;DHT22;9244;50.828;4.718;2024-03-23T14:56:05;14.80;99.90
18240;DHT22;9244;50.828;4.718;2024-03-23T14:58:31;14.00;99.90
18240;DHT22;9244;50.828;4.718;2024-03-23T15:01:04;13.90;99.90
18240;DHT22;9244;50.828;4.718;2024-03-23T15:03:32;14.00;99.90
18240;DHT22;9244;50.828;4.718;2024-03-23T15:05:59;14.20;99.90
18240;DHT22;9244;50.828;4.718;2024-03-23T15:08:27;14.00;99.90
18240;DHT22;9244;50.828;4.718;2024-03-23T15:10:53;13.30;99.90
18240;DHT22;9244;50.828;4.718;2024-03-23T15:13:19;13.10;99.90
18240;DHT22;9244;50.828;4.718;2024-03-23T15:15:48;12.90;99.90
18240;DHT22;9244;50.828;4.718;2024-03-23T15:18:17;12.60;99.90
18240;DHT22;9244;50.828;4.718;2024-03-23T15:20:54;12.50;99.90
18240;DHT22;9244;50.828;4.718;2024-03-23T15:23:21;12.00;99.90
18240;DHT22;9244;50.828;4.718;2024-03-23T15:25:57;11.90;99.90
18240;DHT22;9244;50.828;4.718;2024-03-23T15:28:23;12.50;99.90
18240;DHT22;9244;50.828;4.718;2024-03-23T15:30:50;12.50;99.90
18240;DHT22;9244;50.828;4.718;2024-03-23T15:33:15;12.40;99.90
18240;DHT22;9244;50.828;4.718;2024-03-23T15:35:44;12.40;99.90
18240;DHT22;9244;50.828;4.718;2024-03-23T15:38:09;12.10;99.90
18240;DHT22;9244;50.828;4.718;2024-03-23T15:40:35;12.10;99.90
18240;DHT22;9244;50.828;4.718;2024-03-23T15:43:04;12.10;99.90
18240;DHT22;9244;50.828;4.718;2024-03-23T15:45:29;12.30;99.90
18240;DHT22;9244;50.828;4.718;2024-03-23T15:47:55;12.30;99.90
18240;DHT22;9244;50.828;4.718;2024-03-23T15:50:23;12.20;99.90
18240;DHT22;9244;50.828;4.718;2024-03-23T15:52:48;12.40;99.90
18240;DHT22;9244;50.828;4.718;2024-03-23T15:55:15;11.90;99.90
18240;DHT22;9244;50.828;4.718;2024-03-23T15:57:40;11.50;99.90
18240;DHT22;9244;50.828;4.718;2024-03-23T16:00:07;11.20;99.90
18240;DHT22;9244;50.828;4.718;2024-03-23T16:02:33;11.00;99.90
18240;DHT22;9244;50.828;4.718;2024-03-23T16:05:01;11.00;99.90
18240;DHT22;9244;50.828;4.718;2024-03-23T16:07:29;10.90;99.90
18240;DHT22;9244;50.828;4.718;2024-03-23T16:09:54;10.70;99.90
18240;DHT22;9244;50.828;4.718;2024-03-23T16:12:21;10.70;99.90
18240;DHT22;9244;50.828;4.718;2024-03-23T16:14:46;10.70;99.90
18240;DHT22;9244;50.828;4.718;2024-03-23T16:17:14;10.70;99.90
18240;DHT22;9244;50.828;4.718;2024-03-23T16:19:42;9.80;99.90
18240;DHT22;9244;50.828;4.718;2024-03-23T16:22:08;9.40;99.90
18240;DHT22;9244;50.828;4.718;2024-03-23T16:24:33;9.50;99.90
18240;DHT22;9244;50.828;4.718;2024-03-23T16:27:02;9.60;99.90
18240;DHT22;9244;50.828;4.718;2024-03-23T16:29:28;9.70;99.90
18240;DHT22;9244;50.828;4.718;2024-03-23T16:31:55;9.90;99.90
18240;DHT22;9244;50.828;4.718;2024-03-23T16:34:23;10.00;99.90
18240;DHT22;9244;50.828;4.718;2024-03-23T16:36:49;10.10;99.90
18240;DHT22;9244;50.828;4.718;2024-03-23T16:39:15;10.10;99.90
18240;DHT22;9244;50.828;4.718;2024-03-23T16:41:40;10.30;99.90
18240;DHT22;9244;50.828;4.718;2024-03-23T16:44:06;10.30;99.90
18240;DHT22;9244;50.828;4.718;2024-03-23T16:46:34;10.30;99.90
18240;DHT22;9244;50.828;4.718;2024-03-23T16:49:00;10.20;99.90
18240;DHT22;9244;50.828;4.718;2024-03-23T16:51:26;10.20;99.90
18240;DHT22;9244;50.828;4.718;2024-03-23T16:53:54;10.20;99.90
18240;DHT22;9244;50.828;4.718;2024-03-23T16:56:22;10.30;99.90
18240;DHT22;9244;50.828;4.718;2024-03-23T16:58:49;10.20;99.90
18240;DHT22;9244;50.828;4.718;2024-03-23T17:01:16;10.20;99.90